createdAt,value
2022-09-02T00:01:09.971Z,98.90
2022-09-02T00:03:43.239Z,99.10
2022-09-02T00:06:16.871Z,99.40
2022-09-02T00:08:48.935Z,99.40
2022-09-02T00:11:24.841Z,99.30
2022-09-02T00:13:57.310Z,99.50
2022-09-02T00:16:31.687Z,99.40
2022-09-02T00:19:05.346Z,99.60
2022-09-02T00:21:37.963Z,99.70
2022-09-02T00:24:09.881Z,99.80
2022-09-02T00:26:41.822Z,99.80
2022-09-02T00:29:15.442Z,99.90
2022-09-02T00:31:48.346Z,99.90
2022-09-02T00:34:20.936Z,99.90
2022-09-02T00:36:53.278Z,99.90
2022-09-02T00:39:26.203Z,99.90
2022-09-02T00:41:58.220Z,99.90
2022-09-02T00:44:30.617Z,99.90
2022-09-02T00:47:03.235Z,99.90
2022-09-02T00:49:40.421Z,99.90
2022-09-02T00:52:21.031Z,99.90
2022-09-02T00:54:59.452Z,99.90
2022-09-02T00:57:37.297Z,99.90
2022-09-02T01:00:17.903Z,99.90
2022-09-02T01:02:57.203Z,99.90
2022-09-02T01:05:33.019Z,99.90
2022-09-02T01:08:07.297Z,99.90
2022-09-02T01:10:40.316Z,99.90
2022-09-02T01:13:15.610Z,99.90
2022-09-02T01:15:51.991Z,99.90
2022-09-02T01:18:29.299Z,99.90
2022-09-02T01:21:01.280Z,99.90
2022-09-02T01:23:34.757Z,99.90
2022-09-02T01:26:07.926Z,99.90
2022-09-02T01:28:40.255Z,99.90
2022-09-02T01:31:12.719Z,99.90
2022-09-02T01:33:45.424Z,99.90
2022-09-02T01:36:17.425Z,99.90
2022-09-02T01:38:49.891Z,99.90
2022-09-02T01:41:21.787Z,99.90
2022-09-02T01:43:56.108Z,99.90
2022-09-02T01:46:28.276Z,99.90
2022-09-02T01:49:00.225Z,99.90
2022-09-02T01:51:33.409Z,99.90
2022-09-02T01:54:06.977Z,99.90
2022-09-02T01:56:39.566Z,99.90
2022-09-02T01:59:17.688Z,99.90
2022-09-02T02:01:49.704Z,99.90
2022-09-02T02:04:24.841Z,99.90
2022-09-02T02:06:59.628Z,99.90
2022-09-02T02:09:31.746Z,99.90
2022-09-02T02:12:04.817Z,99.90
2022-09-02T02:14:37.876Z,99.90
2022-09-02T02:17:09.875Z,99.90
2022-09-02T02:19:43.742Z,99.90
2022-09-02T02:22:15.754Z,99.90
2022-09-02T02:24:47.647Z,99.90
2022-09-02T02:27:19.935Z,99.90
2022-09-02T02:29:53.815Z,99.90
2022-09-02T02:32:27.719Z,99.90
2022-09-02T02:35:00.027Z,99.90
2022-09-02T02:37:32.740Z,99.90
2022-09-02T02:40:06.103Z,99.90
2022-09-02T02:42:39.763Z,99.90
2022-09-02T02:45:15.038Z,99.90
2022-09-02T02:47:48.303Z,99.90
2022-09-02T02:50:23.477Z,99.90
2022-09-02T02:52:56.456Z,99.90
2022-09-02T02:55:30.441Z,99.90
2022-09-02T02:58:02.490Z,99.90
2022-09-02T03:00:34.950Z,99.90
2022-09-02T03:03:11.262Z,99.90
2022-09-02T03:05:43.725Z,99.90
2022-09-02T03:08:21.063Z,99.90
2022-09-02T03:10:56.339Z,99.90
2022-09-02T03:13:32.309Z,99.90
2022-09-02T03:16:06.361Z,99.90
2022-09-02T03:18:39.154Z,99.90
2022-09-02T03:21:11.199Z,99.90
2022-09-02T03:23:44.971Z,99.90
2022-09-02T03:26:19.837Z,99.90
2022-09-02T03:28:56.715Z,99.90
2022-09-02T03:31:29.738Z,99.90
2022-09-02T03:34:04.322Z,99.90
2022-09-02T03:36:40.979Z,99.90
2022-09-02T03:39:14.976Z,99.90
2022-09-02T03:41:50.369Z,99.90
2022-09-02T03:44:22.646Z,99.90
2022-09-02T03:46:54.563Z,99.90
2022-09-02T03:49:27.905Z,99.90
2022-09-02T03:52:00.083Z,99.90
2022-09-02T03:54:33.568Z,99.90
2022-09-02T03:57:06.107Z,99.90
2022-09-02T03:59:38.952Z,99.90
2022-09-02T04:02:11.135Z,99.90
2022-09-02T04:04:43.230Z,99.90
2022-09-02T04:07:15.186Z,99.90
2022-09-02T04:09:48.473Z,99.90
2022-09-02T04:12:20.468Z,99.90
2022-09-02T04:14:52.579Z,99.90
2022-09-02T04:17:29.825Z,99.90
2022-09-02T04:20:04.120Z,99.90
2022-09-02T04:22:38.217Z,99.90
2022-09-02T04:25:11.000Z,99.90
2022-09-02T04:27:42.975Z,99.90
2022-09-02T04:30:17.097Z,99.90
2022-09-02T04:32:50.540Z,99.90
2022-09-02T04:35:22.528Z,99.90
2022-09-02T04:37:54.535Z,99.90
2022-09-02T04:40:26.548Z,99.90
2022-09-02T04:43:00.830Z,99.90
2022-09-02T04:45:33.645Z,99.90
2022-09-02T04:48:07.109Z,99.90
2022-09-02T04:50:41.060Z,99.90
2022-09-02T04:53:14.377Z,99.90
2022-09-02T04:55:47.170Z,99.90
2022-09-02T04:58:21.042Z,99.90
2022-09-02T05:00:54.804Z,99.90
2022-09-02T05:03:30.483Z,99.90
2022-09-02T05:06:08.425Z,99.90
2022-09-02T05:08:45.051Z,99.90
2022-09-02T05:11:22.114Z,99.90
2022-09-02T05:13:56.513Z,99.90
2022-09-02T05:16:32.574Z,99.90
2022-09-02T05:19:06.970Z,99.90
2022-09-02T05:21:47.021Z,99.90
2022-09-02T05:24:29.644Z,99.90
2022-09-02T05:27:06.854Z,99.90
2022-09-02T05:29:42.967Z,99.90
2022-09-02T05:32:17.435Z,99.90
2022-09-02T05:34:51.710Z,99.90
2022-09-02T05:37:24.623Z,99.90
2022-09-02T05:39:56.961Z,99.90
2022-09-02T05:42:31.834Z,99.90
2022-09-02T05:45:04.724Z,99.90
2022-09-02T05:47:37.688Z,99.90
2022-09-02T05:50:10.162Z,99.90
2022-09-02T05:52:52.393Z,99.90
2022-09-02T05:55:26.087Z,99.90
2022-09-02T05:57:58.064Z,99.90
2022-09-02T06:00:30.466Z,99.90
2022-09-02T06:03:05.644Z,99.90
2022-09-02T06:05:42.559Z,99.90
2022-09-02T06:08:22.416Z,99.90
2022-09-02T06:10:54.544Z,99.90
2022-09-02T06:13:32.051Z,99.90
2022-09-02T06:16:05.524Z,99.90
2022-09-02T06:18:39.810Z,99.90
2022-09-02T06:21:14.097Z,99.90
2022-09-02T06:23:48.889Z,99.60
2022-09-02T06:26:21.020Z,99.30
2022-09-02T06:28:53.272Z,98.70
2022-09-02T06:31:25.736Z,98.90
2022-09-02T06:33:59.611Z,98.70
2022-09-02T06:36:33.977Z,98.80
2022-09-02T06:39:06.879Z,97.90
2022-09-02T06:41:40.832Z,97.60
2022-09-02T06:44:17.424Z,97.00
2022-09-02T06:46:55.360Z,96.60
2022-09-02T06:49:29.235Z,96.40
2022-09-02T06:52:05.538Z,95.30
2022-09-02T06:54:41.649Z,94.80
2022-09-02T06:57:19.085Z,94.90
2022-09-02T06:59:51.095Z,93.50
2022-09-02T07:02:25.324Z,92.80
2022-09-02T07:05:09.764Z,92.40
2022-09-02T07:07:45.105Z,92.70
2022-09-02T07:10:19.402Z,92.60
2022-09-02T07:12:56.437Z,92.80
2022-09-02T07:15:29.004Z,92.60
2022-09-02T07:18:01.971Z,91.80
2022-09-02T07:20:38.867Z,91.70
2022-09-02T07:23:10.824Z,91.00
2022-09-02T07:25:43.558Z,90.60
2022-09-02T07:28:16.948Z,91.10
2022-09-02T07:30:49.751Z,90.90
2022-09-02T07:33:23.999Z,91.70
2022-09-02T07:35:57.000Z,91.60
2022-09-02T07:38:31.058Z,91.40
2022-09-02T07:41:06.720Z,91.80
2022-09-02T07:43:41.230Z,91.30
2022-09-02T07:46:13.994Z,91.20
2022-09-02T07:48:46.452Z,92.60
2022-09-02T07:51:19.794Z,92.00
2022-09-02T07:53:53.136Z,92.10
2022-09-02T07:56:26.009Z,92.90
2022-09-02T07:58:58.176Z,93.80
2022-09-02T08:01:31.141Z,93.60
2022-09-02T08:04:06.197Z,93.20
2022-09-02T08:06:40.875Z,92.20
2022-09-02T08:09:13.334Z,92.70
2022-09-02T08:11:48.527Z,91.90
2022-09-02T08:14:26.017Z,91.10
2022-09-02T08:16:58.609Z,91.90
2022-09-02T08:19:30.928Z,92.00
2022-09-02T08:22:06.641Z,91.50
2022-09-02T08:24:39.179Z,90.00
2022-09-02T08:27:11.385Z,90.90
2022-09-02T08:29:43.362Z,90.90
2022-09-02T08:32:15.271Z,90.40
2022-09-02T08:34:47.547Z,90.20
2022-09-02T08:37:19.686Z,88.30
2022-09-02T08:39:51.707Z,88.70
2022-09-02T08:42:27.870Z,87.60
2022-09-02T08:45:07.525Z,86.50
2022-09-02T08:47:43.585Z,86.40
2022-09-02T08:50:19.709Z,86.50
2022-09-02T08:53:03.819Z,85.00
2022-09-02T08:55:44.461Z,83.80
2022-09-02T08:58:21.257Z,85.70
2022-09-02T09:01:21.785Z,84.90
2022-09-02T09:04:18.563Z,83.50
2022-09-02T09:07:18.422Z,83.20
2022-09-02T09:09:56.433Z,84.10
2022-09-02T09:12:40.540Z,85.20
2022-09-02T09:15:23.399Z,85.80
2022-09-02T09:17:59.460Z,84.60
2022-09-02T09:20:38.295Z,83.30
2022-09-02T09:23:23.196Z,81.40
2022-09-02T09:26:05.295Z,80.70
2022-09-02T09:28:43.650Z,80.60
2022-09-02T09:31:20.135Z,83.20
2022-09-02T09:34:02.137Z,81.20
2022-09-02T09:36:51.470Z,82.60
2022-09-02T09:39:31.111Z,81.30
2022-09-02T09:42:13.318Z,79.00
2022-09-02T09:44:48.113Z,80.80
2022-09-02T09:47:23.760Z,80.90
2022-09-02T09:50:16.038Z,80.50
2022-09-02T09:52:48.549Z,78.00
2022-09-02T09:55:25.255Z,79.60
2022-09-02T09:58:09.443Z,80.10
2022-09-02T10:00:41.602Z,81.60
2022-09-02T10:03:26.438Z,81.90
2022-09-02T10:06:38.361Z,81.10
2022-09-02T10:09:19.251Z,79.90
2022-09-02T10:11:58.318Z,80.80
2022-09-02T10:14:50.336Z,80.80
2022-09-02T10:17:33.705Z,78.90
2022-09-02T10:20:18.922Z,80.30
2022-09-02T10:23:02.849Z,82.10
2022-09-02T10:26:02.978Z,82.00
2022-09-02T10:28:45.218Z,82.10
2022-09-02T10:31:23.730Z,81.50
2022-09-02T10:34:17.232Z,81.70
2022-09-02T10:37:14.771Z,83.70
2022-09-02T10:39:46.704Z,83.00
2022-09-02T10:42:24.293Z,84.90
2022-09-02T10:45:05.272Z,83.40
2022-09-02T10:47:40.281Z,81.00
2022-09-02T10:50:39.375Z,81.60
2022-09-02T10:53:34.145Z,82.40
2022-09-02T10:56:11.192Z,82.60
2022-09-02T10:59:21.429Z,82.20
2022-09-02T11:02:04.627Z,79.50
2022-09-02T11:04:56.632Z,79.70
2022-09-02T11:07:55.884Z,80.50
2022-09-02T11:10:58.640Z,81.30
2022-09-02T11:13:59.930Z,80.60
2022-09-02T11:16:41.408Z,79.70
2022-09-02T11:19:27.342Z,78.00
2022-09-02T11:22:23.087Z,79.10
2022-09-02T11:24:57.400Z,78.00
2022-09-02T11:28:07.578Z,78.70
2022-09-02T11:31:02.552Z,79.20
2022-09-02T11:33:55.468Z,79.30
2022-09-02T11:36:33.236Z,78.70
2022-09-02T11:39:11.452Z,78.80
2022-09-02T11:42:07.817Z,79.10
2022-09-02T11:45:14.540Z,78.70
2022-09-02T11:48:05.765Z,77.50
2022-09-02T11:50:40.746Z,77.70
2022-09-02T11:53:45.180Z,77.20
2022-09-02T11:56:22.088Z,77.10
2022-09-02T11:58:56.281Z,76.90
2022-09-02T12:01:43.651Z,77.80
2022-09-02T12:07:11.091Z,78.20
2022-09-02T12:09:46.601Z,77.50
2022-09-02T12:12:37.008Z,77.40
2022-09-02T12:15:18.685Z,76.40
2022-09-02T12:17:51.899Z,77.30
2022-09-02T12:20:40.093Z,77.70
2022-09-02T12:23:50.659Z,78.50
2022-09-02T12:26:23.472Z,79.00
2022-09-02T12:29:20.699Z,79.80
2022-09-02T12:31:53.840Z,80.40
2022-09-02T12:34:25.818Z,80.10
2022-09-02T12:36:59.429Z,79.40
2022-09-02T12:39:32.497Z,77.80
2022-09-02T12:42:25.479Z,78.80
2022-09-02T12:45:28.163Z,78.80
2022-09-02T12:48:15.174Z,79.90
2022-09-02T12:50:59.311Z,78.30
2022-09-02T12:53:43.399Z,78.40
2022-09-02T12:56:24.292Z,78.40
2022-09-02T12:59:02.572Z,77.50
2022-09-02T13:01:46.480Z,76.20
2022-09-02T13:04:33.961Z,77.90
2022-09-02T13:07:36.091Z,77.90
2022-09-02T13:10:14.549Z,79.10
2022-09-02T13:13:19.212Z,78.10
2022-09-02T13:16:19.367Z,77.60
2022-09-02T13:19:20.107Z,76.30
2022-09-02T13:22:02.884Z,77.00
2022-09-02T13:24:53.433Z,76.90
2022-09-02T13:27:43.893Z,76.90
2022-09-02T13:30:39.996Z,77.20
2022-09-02T13:33:12.506Z,77.70
2022-09-02T13:35:44.485Z,78.40
2022-09-02T13:38:24.700Z,77.80
2022-09-02T13:40:57.267Z,77.40
2022-09-02T13:43:29.280Z,79.40
2022-09-02T13:46:02.801Z,78.30
2022-09-02T13:48:39.694Z,78.70
2022-09-02T13:51:15.500Z,78.30
2022-09-02T13:54:21.609Z,77.70
2022-09-02T13:56:43.569Z,79.00
2022-09-02T13:59:31.788Z,78.20
2022-09-02T14:02:17.305Z,78.30
2022-09-02T14:04:53.501Z,78.60
2022-09-02T14:07:42.135Z,79.10
2022-09-02T14:10:19.918Z,78.50
2022-09-02T14:12:52.606Z,78.00
2022-09-02T14:15:31.351Z,78.30
2022-09-02T14:18:10.499Z,78.90
2022-09-02T14:21:03.884Z,79.50
2022-09-02T14:23:50.763Z,78.50
2022-09-02T14:26:33.183Z,79.00
2022-09-02T14:29:11.668Z,79.90
2022-09-02T14:31:45.059Z,79.60
2022-09-02T14:34:38.224Z,79.00
2022-09-02T14:37:25.365Z,80.10
2022-09-02T14:40:00.474Z,79.90
2022-09-02T14:42:32.815Z,78.70
2022-09-02T14:45:09.583Z,79.00
2022-09-02T14:47:42.592Z,79.70
2022-09-02T14:50:19.481Z,79.90
2022-09-02T14:52:57.502Z,78.60
2022-09-02T14:55:48.430Z,78.30
2022-09-02T14:58:28.487Z,78.90
2022-09-02T15:01:02.399Z,79.60
2022-09-02T15:03:38.680Z,79.40
2022-09-02T15:06:14.969Z,79.20
2022-09-02T15:08:47.131Z,79.20
2022-09-02T15:11:21.191Z,79.80
2022-09-02T15:13:53.080Z,80.30
2022-09-02T15:16:25.391Z,80.60
2022-09-02T15:18:57.312Z,79.70
2022-09-02T15:21:29.216Z,78.90
2022-09-02T15:24:01.139Z,78.80
2022-09-02T15:26:33.082Z,79.50
2022-09-02T15:29:05.172Z,79.30
2022-09-02T15:31:37.041Z,79.90
2022-09-02T15:34:09.443Z,79.60
2022-09-02T15:36:41.482Z,80.90
2022-09-02T15:39:13.539Z,80.70
2022-09-02T15:41:45.858Z,80.30
2022-09-02T15:44:18.261Z,80.50
2022-09-02T15:46:50.125Z,80.00
2022-09-02T15:49:23.962Z,80.20
2022-09-02T15:51:55.965Z,80.40
2022-09-02T15:54:27.984Z,80.60
2022-09-02T15:56:59.922Z,80.50
2022-09-02T15:59:31.826Z,79.50
2022-09-02T16:02:03.848Z,80.30
2022-09-02T16:04:35.788Z,79.60
2022-09-02T16:07:07.777Z,79.90
2022-09-02T16:09:39.715Z,80.50
2022-09-02T16:12:11.674Z,81.40
2022-09-02T16:14:43.855Z,81.70
2022-09-02T16:17:16.510Z,82.30
2022-09-02T16:19:48.350Z,81.90
2022-09-02T16:22:20.460Z,81.70
2022-09-02T16:24:52.318Z,82.30
2022-09-02T16:27:43.837Z,82.50
2022-09-02T16:30:16.231Z,83.30
2022-09-02T16:32:51.642Z,82.00
2022-09-02T16:35:23.677Z,82.10
2022-09-02T16:37:57.395Z,83.50
2022-09-02T16:40:29.317Z,83.80
2022-09-02T16:43:01.275Z,84.10
2022-09-02T16:45:33.186Z,86.20
2022-09-02T16:48:05.345Z,83.80
2022-09-02T16:50:37.319Z,83.30
2022-09-02T16:53:09.482Z,83.00
2022-09-02T16:55:42.585Z,84.20
2022-09-02T16:58:14.557Z,89.20
2022-09-02T17:00:46.771Z,89.30
2022-09-02T17:03:18.767Z,88.50
2022-09-02T17:05:50.654Z,90.00
2022-09-02T17:08:22.505Z,90.20
2022-09-02T17:11:21.662Z,90.00
2022-09-02T17:14:05.456Z,89.90
2022-09-02T17:16:45.947Z,90.00
2022-09-02T17:19:22.756Z,90.20
2022-09-02T17:21:55.238Z,90.20
2022-09-02T17:24:31.691Z,90.10
2022-09-02T17:27:04.578Z,90.00
2022-09-02T17:29:51.931Z,90.40
2022-09-02T17:32:42.546Z,90.40
2022-09-02T17:35:14.453Z,90.60
2022-09-02T17:37:47.595Z,90.00
2022-09-02T17:40:37.991Z,90.50
2022-09-02T17:43:09.903Z,90.90
2022-09-02T17:45:41.860Z,90.80
2022-09-02T17:48:53.718Z,91.00
2022-09-02T17:51:05.973Z,91.20
2022-09-02T17:53:39.923Z,91.90
2022-09-02T17:56:40.755Z,92.20
2022-09-02T17:59:15.266Z,92.50
2022-09-02T18:02:11.380Z,92.90
2022-09-02T18:05:10.675Z,93.10
2022-09-02T18:07:53.464Z,93.40
2022-09-02T18:10:25.365Z,93.40
2022-09-02T18:13:06.784Z,93.60
2022-09-02T18:15:50.139Z,93.80
2022-09-02T18:18:22.739Z,94.30
2022-09-02T18:21:09.219Z,94.40
2022-09-02T18:24:18.557Z,94.70
2022-09-02T18:27:19.664Z,94.90
2022-09-02T18:29:57.184Z,95.60
2022-09-02T18:32:47.546Z,95.70
2022-09-02T18:35:55.612Z,96.00
2022-09-02T18:38:38.767Z,96.60
2022-09-02T18:41:34.839Z,96.40
2022-09-02T18:44:15.359Z,96.40
2022-09-02T18:46:56.431Z,96.60
2022-09-02T18:49:32.957Z,96.60
2022-09-02T18:52:09.670Z,96.70
2022-09-02T18:54:50.645Z,97.00
2022-09-02T18:57:22.620Z,97.20
2022-09-02T19:00:05.528Z,97.40
2022-09-02T19:03:05.265Z,97.80
2022-09-02T19:05:37.614Z,98.00
2022-09-02T19:08:33.145Z,98.00
2022-09-02T19:11:10.227Z,98.00
2022-09-02T19:13:53.511Z,98.20
2022-09-02T19:16:28.094Z,98.40
2022-09-02T19:19:00.048Z,98.60
2022-09-02T19:22:08.719Z,98.70
2022-09-02T19:24:49.487Z,98.50
2022-09-02T19:27:22.564Z,98.70
2022-09-02T19:30:07.168Z,98.80
2022-09-02T19:32:43.843Z,98.90
2022-09-02T19:35:19.052Z,99.00
2022-09-02T19:37:53.223Z,99.40
2022-09-02T19:40:33.156Z,99.70
2022-09-02T19:43:07.486Z,99.60
2022-09-02T19:45:39.866Z,99.90
2022-09-02T19:48:11.867Z,99.80
2022-09-02T19:50:46.084Z,99.60
2022-09-02T19:53:25.273Z,99.60
2022-09-02T19:55:58.452Z,99.50
2022-09-02T19:58:30.343Z,99.70
2022-09-02T20:01:04.305Z,99.90
2022-09-02T20:03:38.434Z,99.90
2022-09-02T20:06:10.302Z,99.90
2022-09-02T20:08:42.429Z,99.90
2022-09-02T20:11:14.855Z,99.90
2022-09-02T20:13:46.724Z,99.90
2022-09-02T20:16:22.005Z,99.60
2022-09-02T20:18:55.244Z,98.80
2022-09-02T20:21:42.383Z,98.20
2022-09-02T20:24:22.413Z,96.60
2022-09-02T20:27:09.679Z,95.90
2022-09-02T20:30:07.549Z,95.90
2022-09-02T20:33:16.800Z,96.20
2022-09-02T20:35:58.080Z,96.50
2022-09-02T20:39:03.973Z,96.90
2022-09-02T20:41:55.214Z,97.50
2022-09-02T20:44:40.966Z,97.80
2022-09-02T20:47:24.609Z,97.90
2022-09-02T20:50:14.931Z,97.90
2022-09-02T20:53:14.386Z,98.10
2022-09-02T20:56:19.668Z,98.40
2022-09-02T20:59:10.545Z,98.40
2022-09-02T21:01:47.778Z,98.40
2022-09-02T21:04:25.430Z,98.20
2022-09-02T21:07:08.430Z,98.50
2022-09-02T21:10:00.244Z,99.10
2022-09-02T21:12:37.058Z,99.20
2022-09-02T21:15:33.868Z,99.50
2022-09-02T21:18:24.811Z,99.90
2022-09-02T21:21:06.900Z,99.90
2022-09-02T21:23:48.971Z,99.90
2022-09-02T21:26:36.146Z,99.90
2022-09-02T21:29:18.667Z,99.90
2022-09-02T21:32:16.247Z,99.90
2022-09-02T21:35:09.905Z,99.90
2022-09-02T21:37:44.931Z,99.90
2022-09-02T21:40:19.255Z,99.90
2022-09-02T21:43:21.164Z,99.90
2022-09-02T21:46:13.330Z,99.90
2022-09-02T21:49:02.277Z,99.90
2022-09-02T21:51:41.116Z,99.90
2022-09-02T21:54:36.303Z,99.90
2022-09-02T21:57:30.171Z,99.90
2022-09-02T22:00:13.200Z,99.90
2022-09-02T22:03:11.238Z,99.90
2022-09-02T22:06:00.575Z,99.90
2022-09-02T22:08:50.453Z,99.90
2022-09-02T22:11:34.287Z,99.90
2022-09-02T22:14:15.210Z,99.90
2022-09-02T22:16:47.048Z,99.90
2022-09-02T22:19:20.273Z,99.90
2022-09-02T22:21:56.794Z,99.90
2022-09-02T22:24:29.741Z,99.90
2022-09-02T22:27:08.808Z,99.90
2022-09-02T22:29:50.240Z,99.90
2022-09-02T22:32:25.443Z,99.90
2022-09-02T22:35:31.584Z,99.90
2022-09-02T22:38:12.744Z,99.90
2022-09-02T22:40:53.820Z,99.90
2022-09-02T22:43:31.509Z,99.90
2022-09-02T22:46:36.446Z,99.90
2022-09-02T22:49:32.314Z,99.90
2022-09-02T22:52:34.845Z,99.90
2022-09-02T22:55:10.136Z,99.90
2022-09-02T22:57:55.562Z,99.90
2022-09-02T23:00:35.427Z,99.90
2022-09-02T23:03:33.348Z,99.90
2022-09-02T23:06:17.363Z,99.90
2022-09-02T23:08:49.265Z,99.90
2022-09-02T23:11:28.000Z,99.90
2022-09-02T23:14:26.446Z,99.90
2022-09-02T23:17:05.121Z,99.90
2022-09-02T23:20:02.331Z,99.90
2022-09-02T23:22:44.183Z,99.90
2022-09-02T23:25:34.706Z,99.90
2022-09-02T23:28:52.237Z,99.90
2022-09-02T23:31:38.155Z,99.90
2022-09-02T23:34:48.068Z,99.90
2022-09-02T23:37:51.729Z,99.90
2022-09-02T23:40:43.407Z,99.90
2022-09-02T23:43:18.164Z,99.90
2022-09-02T23:45:51.368Z,99.90
2022-09-02T23:48:27.251Z,99.90
2022-09-02T23:51:20.741Z,99.90
2022-09-02T23:54:07.273Z,99.90
2022-09-02T23:56:52.674Z,99.90
2022-09-02T23:59:43.436Z,99.90
